createdAt,value
2019-02-11T00:03:45.916Z,20.40
2019-02-11T00:17:08.697Z,20.40
2019-02-11T00:44:06.376Z,20.40
2019-02-11T00:57:13.527Z,20.40
2019-02-11T01:10:20.738Z,20.40
2019-02-11T01:23:27.904Z,20.40
2019-02-11T01:36:35.016Z,20.40
2019-02-11T02:02:44.578Z,20.40
2019-02-11T02:15:51.689Z,20.50
2019-02-11T02:28:58.864Z,20.40
2019-02-11T02:42:06.026Z,20.40
2019-02-11T03:08:16.735Z,20.40
2019-02-11T03:21:23.871Z,20.40
2019-02-11T03:34:31.006Z,20.40
2019-02-11T03:47:38.193Z,20.40
2019-02-11T04:00:45.388Z,20.40
2019-02-11T04:13:52.563Z,20.40
2019-02-11T04:27:16.565Z,20.40
2019-02-11T04:40:39.277Z,20.40
2019-02-11T05:07:03.813Z,20.40
2019-02-11T05:20:11.011Z,20.40
2019-02-11T05:33:18.375Z,20.40
2019-02-11T05:46:25.532Z,20.40
2019-02-11T05:59:32.684Z,20.40
2019-02-11T06:12:39.865Z,20.30
2019-02-11T06:26:03.532Z,20.40
2019-02-11T06:39:26.471Z,20.40
2019-02-11T06:52:49.384Z,20.30
2019-02-11T07:06:11.943Z,20.30
2019-02-11T07:19:34.753Z,20.40
2019-02-11T07:45:59.251Z,20.30
2019-02-11T07:59:06.388Z,20.30
2019-02-11T08:12:13.566Z,20.30
2019-02-11T08:25:20.848Z,20.40
2019-02-11T08:38:28.059Z,20.50
2019-02-11T08:51:35.163Z,20.40
2019-02-11T09:04:58.976Z,20.10
2019-02-11T09:18:21.839Z,19.50
2019-02-11T09:31:44.605Z,19.30
2019-02-11T09:45:07.414Z,19.10
2019-02-11T09:58:30.293Z,18.90
2019-02-11T10:11:53.062Z,18.80
2019-02-11T10:25:15.858Z,18.80
2019-02-11T10:38:38.766Z,18.70
2019-02-11T11:05:03.198Z,18.60
2019-02-11T11:18:10.367Z,18.60
2019-02-11T11:31:17.501Z,19.10
2019-02-11T11:44:24.626Z,19.70
2019-02-11T11:57:31.781Z,19.90
2019-02-11T12:10:38.933Z,20.10
2019-02-11T12:24:02.909Z,20.20
2019-02-11T12:37:25.753Z,20.20
2019-02-11T12:50:48.562Z,20.40
2019-02-11T13:04:11.398Z,20.40
2019-02-11T13:17:34.939Z,20.40
2019-02-11T13:30:57.017Z,20.40
2019-02-11T13:44:19.855Z,20.50
2019-02-11T13:57:42.722Z,20.50
2019-02-11T14:11:05.454Z,20.50
2019-02-11T14:24:28.289Z,20.60
2019-02-11T14:37:51.151Z,20.60
2019-02-11T14:51:13.931Z,20.60
2019-02-11T15:04:36.759Z,20.70
2019-02-11T15:17:59.678Z,20.70
2019-02-11T15:31:22.391Z,20.70
2019-02-11T15:44:45.186Z,20.70
2019-02-11T15:58:07.961Z,20.70
2019-02-11T16:11:30.817Z,20.70
2019-02-11T16:24:53.641Z,20.80
2019-02-11T16:38:16.426Z,20.90
2019-02-11T16:51:39.295Z,21.00
2019-02-11T17:05:02.029Z,21.00
2019-02-11T17:18:24.888Z,21.00
2019-02-11T17:31:47.665Z,21.00
2019-02-11T17:58:12.208Z,21.00
2019-02-11T18:11:19.913Z,20.90
2019-02-11T18:24:26.554Z,20.50
2019-02-11T18:37:33.744Z,19.60
2019-02-11T18:50:40.996Z,19.30
2019-02-11T19:03:48.431Z,19.90
2019-02-11T19:17:12.008Z,19.90
2019-02-11T19:30:34.712Z,19.70
2019-02-11T19:56:59.274Z,19.80
2019-02-11T20:10:06.492Z,19.90
2019-02-11T20:23:13.652Z,20.00
2019-02-11T20:49:24.984Z,20.10
2019-02-11T21:02:32.134Z,20.10
2019-02-11T21:15:39.377Z,20.10
2019-02-11T21:28:46.481Z,20.10
2019-02-11T21:41:53.724Z,20.20
2019-02-11T22:08:03.514Z,20.40
2019-02-11T22:21:10.654Z,20.20
2019-02-11T22:34:17.843Z,20.20
2019-02-11T22:47:24.946Z,20.20
2019-02-11T23:00:32.107Z,20.20
2019-02-11T23:13:39.252Z,20.20
2019-02-11T23:27:03.286Z,20.20
2019-02-11T23:40:26.091Z,20.20
2019-02-11T23:53:48.947Z,20.20
